Linden, Virginia
Current Conditions -  °F | °C
As of 7:55 PM on Saturday 22 Nov 2014 (Local Time) from KFRR Reporting Station
Broken Clouds Broken Clouds  
Wind Chill: 42°   Ceiling: 11000
Heat Index: 45°   Visibility: 10mi
Dew Point: 23°   Wind: 5mph
Humidity: 43%   Direction: 200°SSW
Pressure: 30.21"   Gusts: NA
Location:  38.91°N, 78.08°W
Report Text: KFRR 230055Z AUTO 20004KT 10SM BKN110 07/M05 A3021 RMK AO1
Loading
Personal Weather Stations






























Interactive Weather Map New forecast layout! Learn more

10-Day Weather Forecast

Advertisements
Track Severe Weather on mobile